MATARYN LLMG-LLMG

Flight info

Callsign MATARYN
Flight time 0h 9m
Altitude 5000
Route LSA/CVFR ROUTES
Aircraft AT8T/L-V/N

Departure

Time 2026-04-22 12:05
Airport Megiddo Airport (LLMG)

Arrival

Time 2026-04-22 12:14
Airport Megiddo Airport (LLMG)
Time Latitude Longitude Altitude Speed Heading
2026-04-22 11:58 32.59788 35.23461 187 ft 0 kts 271°
2026-04-22 12:01 32.59770 35.23449 190 ft 9 kts 151°
2026-04-22 12:01 32.59748 35.23464 187 ft 0 kts 152°
2026-04-22 12:02 32.59737 35.23470 194 ft 5 kts 171°
2026-04-22 12:02 32.59706 35.23441 187 ft 1 kts 271°
2026-04-22 12:03 32.59707 35.23388 188 ft 19 kts 272°
2026-04-22 12:03 32.59717 35.23025 194 ft 65 kts 271°
2026-04-22 12:03 32.59725 35.22377 199 ft 91 kts 269°
2026-04-22 12:04 32.59703 35.21586 281 ft 102 kts 271°
2026-04-22 12:04 32.59656 35.20701 461 ft 107 kts 250°
2026-04-22 12:04 32.59136 35.20127 519 ft 122 kts 205°
2026-04-22 12:04 32.58300 35.20228 745 ft 116 kts 151°
2026-04-22 12:05 32.57980 35.21086 855 ft 123 kts 69°
2026-04-22 12:05 32.58167 35.21702 1101 ft 115 kts 65°
2026-04-22 12:05 32.58598 35.22902 1409 ft 118 kts 58°
2026-04-22 12:05 32.59012 35.23763 1584 ft 122 kts 55°
2026-04-22 12:06 32.59410 35.24652 1877 ft 122 kts 56°
2026-04-22 12:06 32.59838 35.25519 2183 ft 122 kts 57°
2026-04-22 12:06 32.60285 35.26376 2355 ft 125 kts 58°
2026-04-22 12:06 32.60697 35.27296 2501 ft 127 kts 68°
2026-04-22 12:07 32.60955 35.28392 2318 ft 150 kts 77°
2026-04-22 12:07 32.61068 35.29199 2124 ft 148 kts 88°
2026-04-22 12:07 32.61034 35.30789 1772 ft 145 kts 93°
2026-04-22 12:07 32.60937 35.31965 1516 ft 143 kts 97°
2026-04-22 12:08 32.60672 35.33110 1198 ft 145 kts 114°
2026-04-22 12:08 32.60436 35.33849 952 ft 142 kts 91°
2026-04-22 12:08 32.60196 35.34872 657 ft 134 kts 143°
2026-04-22 12:08 32.59569 35.35624 506 ft 123 kts 121°
2026-04-22 12:09 32.59295 35.36478 518 ft 101 kts 117°
2026-04-22 12:09 32.59082 35.37241 694 ft 110 kts 90°
2026-04-22 12:09 32.59504 35.37984 798 ft 122 kts 15°
2026-04-22 12:09 32.59872 35.37384 1020 ft 114 kts 257°
2026-04-22 12:10 32.59709 35.36496 1365 ft 121 kts 289°
2026-04-22 12:10 32.60315 35.35782 1516 ft 131 kts 329°
2026-04-22 12:10 32.60777 35.34949 1061 ft 151 kts 271°
2026-04-22 12:10 32.60863 35.33926 1007 ft 138 kts 248°
2026-04-22 12:11 32.60560 35.34066 1421 ft 117 kts 13°
2026-04-22 12:11 32.60684 35.33560 2074 ft 99 kts 214°
2026-04-22 12:11 32.60110 35.34024 2224 ft 133 kts 76°
2026-04-22 12:11 32.60811 35.33991 1822 ft 153 kts 292°
2026-04-22 12:12 32.60923 35.32766 1757 ft 153 kts 262°
2026-04-22 12:12 32.60478 35.31660 1919 ft 144 kts 252°
2026-04-22 12:12 32.60283 35.30532 2217 ft 134 kts 263°
2026-04-22 12:12 32.60145 35.29392 2232 ft 146 kts 263°
2026-04-22 12:13 32.60011 35.28253 2044 ft 127 kts 263°
2026-04-22 12:13 32.59883 35.27287 1772 ft 112 kts 266°
2026-04-22 12:13 32.59738 35.26326 898 ft 125 kts 275°
2026-04-22 12:13 32.59663 35.25514 652 ft 80 kts 260°
2026-04-22 12:14 32.59604 35.24909 347 ft 75 kts 285°
2026-04-22 12:14 32.59675 35.24337 241 ft 69 kts 279°
2026-04-22 12:14 32.59698 35.23828 182 ft 51 kts 275°
2026-04-22 12:14 32.59706 35.23522 185 ft 17 kts 271°
2026-04-22 12:15 32.59712 35.23183 197 ft 83 kts 266°
2026-04-22 12:15 32.59698 35.22331 256 ft 121 kts 270°
2026-04-22 12:15 32.59775 35.21298 410 ft 121 kts 267°
2026-04-22 12:15 32.59530 35.21714 473 ft 96 kts 47°
2026-04-22 12:16 32.59726 35.22350 215 ft 72 kts 88°
2026-04-22 12:16 32.59713 35.22830 195 ft 41 kts 96°
2026-04-22 12:16 32.59733 35.23125 191 ft 21 kts 109°
2026-04-22 12:16 32.59707 35.23256 190 ft 29 kts 90°
2026-04-22 12:17 32.59750 35.23463 194 ft 17 kts
2026-04-22 12:17 32.59784 35.23467 187 ft 0 kts 327°